Time;durP1;ratioP1;P1;durP2;ratioP2;P2;SDS_P1;SDS_P2;PMS_P1;PMS_P2;Temp;Humidity;BMP_temperature;BMP_pressure;BME280_temperature;BME280_humidity;BME280_pressure;Samples;Min_cycle;Max_cycle;Signal;HPM_P1;HPM_P2
2022/09/07 09:58:36;;;;;;;7.40;2.30;;;27.10;88.30;;;;;;6157384;22;1369628;-75
2022/09/07 10:01:33;;;;;;;7.65;1.55;;;27.10;88.50;;;;;;6252951;22;20000;-75
2022/09/07 10:04:31;;;;;;;6.38;1.55;;;27.10;88.20;;;;;;6249014;23;20142;-75
2022/09/07 10:07:37;;;;;;;6.38;1.90;;;27.00;88.50;;;;;;6239139;23;20297;-78
2022/09/07 10:10:17;;;;;;;8.75;1.70;;;27.00;88.90;;;;;;6252125;22;20050;-75
2022/09/07 10:12:51;;;;;;;4.38;1.50;;;27.00;88.60;;;;;;6251891;22;20019;-75
2022/09/07 10:15:40;;;;;;;5.43;1.50;;;27.20;87.80;;;;;;6251983;22;19996;-75
2022/09/07 10:18:16;;;;;;;7.22;2.40;;;27.30;86.60;;;;;;6246449;23;20004;-76
2022/09/07 10:20:41;;;;;;;6.45;2.13;;;27.30;87.00;;;;;;6252785;22;20007;-75
2022/09/07 10:26:40;;;;;;;5.97;1.55;;;27.30;86.30;;;;;;6252024;23;20007;-74
2022/09/07 10:29:23;;;;;;;9.77;1.42;;;27.30;85.80;;;;;;6248755;23;20011;-74
2022/09/07 10:32:08;;;;;;;6.60;1.90;;;27.40;85.80;;;;;;6251626;22;20028;-73
2022/09/07 10:35:19;;;;;;;6.60;1.60;;;27.40;85.30;;;;;;6252683;23;20008;-75
2022/09/07 10:37:51;;;;;;;6.78;1.83;;;27.40;85.80;;;;;;6252632;23;20352;-74
2022/09/07 10:40:44;;;;;;;5.65;1.75;;;27.40;86.00;;;;;;6252078;23;20205;-74
2022/09/07 10:43:38;;;;;;;5.70;1.85;;;27.40;85.60;;;;;;6252140;23;20004;-75
2022/09/07 10:46:24;;;;;;;6.47;1.90;;;27.40;86.30;;;;;;6252304;23;20339;-75
2022/09/07 10:49:18;;;;;;;5.07;1.70;;;27.50;85.90;;;;;;6253086;22;20000;-74
2022/09/07 10:52:21;;;;;;;4.18;1.60;;;27.50;86.00;;;;;;6252117;23;20004;-74
2022/09/07 10:55:06;;;;;;;6.63;1.88;;;27.40;86.50;;;;;;6250611;23;20285;-74
2022/09/07 10:57:45;;;;;;;5.85;2.42;;;27.30;86.90;;;;;;6251596;23;20020;-74
2022/09/07 11:03:57;;;;;;;6.78;1.80;;;27.20;87.40;;;;;;6252595;23;20023;-74
2022/09/07 11:07:11;;;;;;;5.50;1.65;;;27.10;87.60;;;;;;6251122;23;20308;-74
2022/09/07 11:09:50;;;;;;;6.63;1.75;;;27.10;87.90;;;;;;6252625;23;20054;-75
2022/09/07 11:12:25;;;;;;;7.32;2.15;;;27.10;88.00;;;;;;6251768;22;20011;-74
2022/09/07 11:15:23;;;;;;;6.40;1.85;;;27.10;88.50;;;;;;6252557;22;20203;-74
2022/09/07 11:18:02;;;;;;;;;;;27.00;88.60;;;;;;6211621;22;20194;-77
2022/09/07 11:20:44;;;;;;;4.78;1.67;;;26.90;88.40;;;;;;6253241;23;19903;-76
2022/09/07 11:23:37;;;;;;;8.93;2.20;;;27.30;88.70;;;;;;6252846;23;20286;-75
2022/09/07 11:30:33;;;;;;;5.05;1.65;;;30.50;81.20;;;;;;6254983;23;20031;-75
2022/09/07 11:33:14;;;;;;;6.90;1.77;;;32.40;76.50;;;;;;6132173;23;20311;-74
2022/09/07 11:36:13;;;;;;;5.68;1.90;;;33.50;73.20;;;;;;6132479;23;20018;-74
2022/09/07 11:39:07;;;;;;;4.47;1.42;;;34.70;70.60;;;;;;6231187;22;20004;-75
2022/09/07 11:41:40;;;;;;;5.55;1.52;;;35.40;68.30;;;;;;6207649;22;20019;-74
2022/09/07 11:44:37;;;;;;;7.65;1.58;;;35.90;66.20;;;;;;6254280;22;20019;-74
2022/09/07 11:47:10;;;;;;;5.70;1.75;;;35.50;65.60;;;;;;6253921;23;20414;-74
2022/09/07 11:49:36;;;;;;;7.90;2.35;;;35.50;66.60;;;;;;6254771;22;20053;-74
2022/09/07 11:52:36;;;;;;;9.20;1.67;;;36.10;65.00;;;;;;6254547;23;20008;-75
2022/09/07 11:55:18;;;;;;;3.83;1.33;;;36.40;63.70;;;;;;6254497;22;20000;-75
2022/09/07 11:58:35;;;;;;;4.93;1.17;;;37.60;61.50;;;;;;6251103;23;20364;-74
2022/09/07 12:01:35;;;;;;;5.60;1.42;;;38.40;59.80;;;;;;6254428;22;20008;-74
2022/09/07 12:04:28;;;;;;;5.82;1.80;;;39.70;58.60;;;;;;6254237;23;19996;-74
2022/09/07 12:07:21;;;;;;;3.53;1.08;;;39.70;57.70;;;;;;6254688;22;20008;-74
2022/09/07 12:13:12;;;;;;;3.75;1.13;;;37.90;57.60;;;;;;6239548;22;20004;-75
2022/09/07 12:16:15;;;;;;;6.45;1.48;;;36.80;59.50;;;;;;6253906;22;19996;-74
2022/09/07 12:19:01;;;;;;;4.97;1.05;;;38.30;58.40;;;;;;6252219;23;20004;-75
2022/09/07 12:21:59;;;;;;;3.72;0.95;;;37.90;56.30;;;;;;6253479;22;20023;-73
2022/09/07 12:24:57;;;;;;;4.28;0.90;;;38.80;56.00;;;;;;6250957;23;20004;-73
2022/09/07 12:30:35;;;;;;;3.83;0.90;;;40.20;52.90;;;;;;6018035;23;20015;-74
2022/09/07 12:33:22;;;;;;;3.95;1.30;;;39.10;54.40;;;;;;6096532;23;20084;-74
2022/09/07 12:35:51;;;;;;;3.13;1.00;;;38.60;54.30;;;;;;6131360;23;20009;-74
2022/09/07 12:38:32;;;;;;;5.43;1.30;;;37.20;56.30;;;;;;6105932;23;20025;-75
2022/09/07 12:41:39;;;;;;;4.90;1.17;;;35.80;58.40;;;;;;6114849;23;20013;-74
2022/09/07 12:44:14;;;;;;;3.78;0.95;;;35.70;59.40;;;;;;6130551;23;20061;-74
2022/09/07 12:47:26;;;;;;;3.33;1.13;;;37.60;55.70;;;;;;6131055;23;20010;-74
2022/09/07 12:50:11;;;;;;;3.72;1.02;;;38.50;54.60;;;;;;6114776;23;20311;-74
2022/09/07 12:53:10;;;;;;;4.45;0.95;;;37.40;55.60;;;;;;6130990;23;20010;-74
2022/09/07 12:56:21;;;;;;;4.05;1.10;;;36.90;56.20;;;;;;6131148;23;20044;-74
2022/09/07 12:59:11;;;;;;;4.32;1.10;;;37.50;55.60;;;;;;6101508;23;20241;-74
2022/09/07 13:02:02;;;;;;;5.60;1.20;;;36.70;56.50;;;;;;6101187;23;20057;-75
2022/09/07 13:04:29;;;;;;;3.80;1.15;;;36.10;57.00;;;;;;6077821;23;20065;-75
2022/09/07 13:07:33;;;;;;;4.60;1.10;;;35.70;57.70;;;;;;6145139;23;20005;-75
2022/09/07 13:13:14;;;;;;;4.65;1.30;;;35.60;58.60;;;;;;6223616;23;20064;-75
2022/09/07 13:15:56;;;;;;;7.10;1.63;;;35.00;57.90;;;;;;6230370;23;20009;-75
2022/09/07 13:18:25;;;;;;;9.80;1.42;;;34.80;58.70;;;;;;6223482;23;20011;-75
2022/09/07 13:21:38;;;;;;;6.13;1.20;;;35.00;58.40;;;;;;6229718;23;20352;-75
2022/09/07 13:24:19;;;;;;;4.07;1.08;;;36.10;57.00;;;;;;6224506;23;20007;-76
2022/09/07 13:27:02;;;;;;;6.90;1.30;;;38.70;53.80;;;;;;6224013;23;19996;-75
2022/09/07 13:30:20;;;;;;;4.75;1.17;;;40.30;51.90;;;;;;6223779;23;20008;-74
2022/09/07 13:32:45;;;;;;;5.72;1.30;;;42.20;50.60;;;;;;6191208;23;20005;-75
2022/09/07 13:35:27;;;;;;;4.13;1.05;;;43.70;48.60;;;;;;6191644;23;20040;-75
2022/09/07 13:37:59;;;;;;;5.50;0.90;;;44.30;47.50;;;;;;6192316;23;20008;-75
2022/09/07 13:40:50;;;;;;;1.75;0.73;;;44.60;47.10;;;;;;6191615;23;20012;-74
2022/09/07 13:43:20;;;;;;;3.60;0.98;;;45.90;46.90;;;;;;6165262;23;20060;-76
2022/09/07 13:46:05;;;;;;;2.60;0.90;;;46.30;45.80;;;;;;6191790;23;20028;-75
2022/09/07 13:48:47;;;;;;;4.93;0.90;;;47.10;44.70;;;;;;6191111;23;20302;-75
2022/09/07 13:51:52;;;;;;;5.60;1.00;;;47.90;44.00;;;;;;6191155;23;20136;-75
2022/09/07 13:54:40;;;;;;;4.60;1.42;;;45.80;44.40;;;;;;6190968;23;20352;-77
2022/09/07 13:57:32;;;;;;;2.55;0.70;;;42.80;46.00;;;;;;6191464;23;20017;-75
2022/09/07 14:00:21;;;;;;;2.85;1.00;;;42.50;47.40;;;;;;6191748;23;20012;-75
2022/09/07 14:03:05;;;;;;;5.00;0.75;;;43.20;47.10;;;;;;6191551;23;20000;-76
2022/09/07 14:05:37;;;;;;;3.03;1.40;;;43.10;46.50;;;;;;6191202;23;20291;-77
2022/09/07 14:11:37;;;;;;;3.53;0.80;;;45.10;45.40;;;;;;6212009;23;20011;-76
2022/09/07 14:14:25;;;;;;;4.57;1.20;;;46.40;44.00;;;;;;6196967;23;20017;-76
2022/09/07 14:17:01;;;;;;;2.60;0.90;;;46.80;43.70;;;;;;6223859;23;20001;-76
2022/09/07 14:19:50;;;;;;;5.38;1.20;;;47.00;43.60;;;;;;6223494;23;19996;-76
2022/09/07 14:22:44;;;;;;;3.25;0.90;;;46.40;43.50;;;;;;6223545;23;20008;-75
2022/09/07 14:25:21;;;;;;;5.05;1.00;;;45.80;43.80;;;;;;6223592;23;20047;-75
2022/09/07 14:27:47;;;;;;;;;;;45.60;43.60;;;;;;6224057;23;20263;-75
2022/09/07 14:30:37;;;;;;;6.95;1.13;;;45.80;43.70;;;;;;6222020;23;20204;-76
2022/09/07 14:33:25;;;;;;;3.65;0.93;;;46.50;43.80;;;;;;6222491;23;20008;-75
2022/09/07 14:35:54;;;;;;;2.40;0.80;;;47.30;42.40;;;;;;6221774;23;20011;-75
2022/09/07 14:38:35;;;;;;;3.70;0.70;;;46.90;42.50;;;;;;6250752;23;20162;-75
2022/09/07 14:41:08;;;;;;;3.17;0.93;;;46.30;42.70;;;;;;6223160;23;20000;-75
2022/09/07 14:43:57;;;;;;;3.90;0.70;;;43.90;43.70;;;;;;6223251;23;20273;-75
2022/09/07 14:46:27;;;;;;;6.60;1.27;;;40.80;46.40;;;;;;6223348;23;20004;-75
2022/09/07 14:48:55;;;;;;;2.35;0.90;;;39.00;48.60;;;;;;6223508;23;20179;-75
2022/09/07 14:51:48;;;;;;;4.80;1.52;;;37.60;49.70;;;;;;6222553;23;20007;-75
2022/09/07 14:54:26;;;;;;;3.20;1.00;;;35.80;51.70;;;;;;6222396;23;20035;-76
2022/09/07 14:57:21;;;;;;;5.97;1.25;;;34.70;53.20;;;;;;6229432;23;20059;-76
2022/09/07 15:00:42;;;;;;;3.90;1.35;;;34.20;53.90;;;;;;6253528;22;20015;-75
2022/09/07 15:03:30;;;;;;;4.15;1.20;;;34.20;54.20;;;;;;6255584;22;20004;-74
2022/09/07 15:06:04;;;;;;;5.47;0.93;;;34.10;54.10;;;;;;6255373;23;20000;-75
2022/09/07 15:08:45;;;;;;;4.68;1.10;;;35.00;53.90;;;;;;6255465;22;20007;-74
2022/09/07 15:11:12;;;;;;;6.43;1.08;;;36.50;52.10;;;;;;6255896;22;20008;-75
2022/09/07 15:13:41;;;;;;;3.72;1.30;;;37.70;50.50;;;;;;6256051;23;20091;-76
2022/09/07 15:16:27;;;;;;;3.92;1.23;;;38.90;50.00;;;;;;6254527;23;20286;-75
2022/09/07 15:19:30;;;;;;;4.13;1.10;;;38.90;48.70;;;;;;6242703;23;20012;-74
2022/09/07 15:21:56;;;;;;;4.93;1.30;;;37.70;50.20;;;;;;6255975;23;20038;-75
2022/09/07 15:24:21;;;;;;;2.40;0.95;;;37.60;49.80;;;;;;6255314;22;20000;-75
2022/09/07 15:26:52;;;;;;;5.50;1.10;;;37.80;50.30;;;;;;6255856;23;20004;-75
2022/09/07 15:29:21;;;;;;;4.75;1.20;;;37.90;49.80;;;;;;6256170;22;20082;-75
2022/09/07 15:31:56;;;;;;;5.43;1.10;;;37.50;49.70;;;;;;6255999;22;20006;-75
2022/09/07 15:34:24;;;;;;;3.60;0.90;;;37.50;50.10;;;;;;6255184;23;20000;-75
2022/09/07 15:36:51;;;;;;;6.28;0.95;;;37.30;50.00;;;;;;6255890;23;20080;-74
2022/09/07 15:39:29;;;;;;;4.63;1.45;;;36.90;50.30;;;;;;6255522;22;20061;-75
2022/09/07 15:41:55;;;;;;;3.97;1.00;;;37.30;50.40;;;;;;6255764;22;20055;-75
2022/09/07 15:44:27;;;;;;;4.22;0.85;;;37.60;49.80;;;;;;6255311;22;20178;-75
2022/09/07 15:46:59;;;;;;;4.13;1.13;;;36.80;50.50;;;;;;6255818;22;20003;-74
2022/09/07 15:49:28;;;;;;;2.72;0.90;;;35.60;51.60;;;;;;6254000;23;20012;-75
2022/09/07 15:51:54;;;;;;;3.30;0.90;;;34.60;52.80;;;;;;6254920;23;20042;-75
2022/09/07 15:54:23;;;;;;;5.43;1.00;;;33.80;54.30;;;;;;6255609;23;20000;-75
2022/09/07 15:56:52;;;;;;;5.03;1.20;;;33.20;55.30;;;;;;6253787;23;20225;-75
2022/09/07 15:59:26;;;;;;;7.03;1.40;;;32.90;56.40;;;;;;6254695;22;20007;-75
2022/09/07 16:01:52;;;;;;;2.80;1.00;;;32.80;56.70;;;;;;6255513;23;20229;-75
2022/09/07 16:04:27;;;;;;;5.90;1.48;;;32.70;56.80;;;;;;6251319;23;20000;-75
2022/09/07 16:06:54;;;;;;;4.07;1.27;;;32.60;57.30;;;;;;6254336;23;20023;-75
2022/09/07 16:09:20;;;;;;;4.47;1.23;;;32.70;57.30;;;;;;6254944;23;20278;-75
2022/09/07 16:11:46;;;;;;;3.17;1.10;;;33.50;56.30;;;;;;6255672;22;20213;-75
2022/09/07 16:14:12;;;;;;;3.63;0.90;;;34.80;54.70;;;;;;6255744;22;20030;-75
2022/09/07 16:16:38;;;;;;;3.80;1.48;;;35.30;53.40;;;;;;6255157;22;20004;-75
2022/09/07 16:19:04;;;;;;;4.53;2.03;;;35.70;53.20;;;;;;6255466;23;20010;-75
2022/09/07 16:21:29;;;;;;;3.20;1.60;;;36.50;52.00;;;;;;6254181;23;20016;-75
2022/09/07 16:23:58;;;;;;;3.33;1.40;;;37.50;51.00;;;;;;6255800;23;20011;-75
2022/09/07 16:26:30;;;;;;;3.10;1.30;;;37.20;50.70;;;;;;6262755;22;20000;-75
2022/09/07 16:28:56;;;;;;;4.05;0.90;;;36.70;50.90;;;;;;6264140;23;20000;-75
2022/09/07 16:31:47;;;;;;;4.05;1.20;;;35.50;51.80;;;;;;6232057;22;20040;-75
2022/09/07 16:34:42;;;;;;;3.10;0.90;;;34.00;54.20;;;;;;6236693;23;20136;-74
2022/09/07 16:37:07;;;;;;;4.55;1.05;;;32.70;55.40;;;;;;6229389;23;20008;-74
2022/09/07 16:39:36;;;;;;;3.17;1.15;;;31.90;57.00;;;;;;6226428;23;20011;-75
2022/09/07 16:42:08;;;;;;;3.63;1.23;;;31.20;58.70;;;;;;6223251;23;20244;-75
2022/09/07 16:44:37;;;;;;;3.45;1.48;;;30.80;59.00;;;;;;6224192;23;20016;-74
2022/09/07 16:47:06;;;;;;;3.50;1.27;;;30.30;59.20;;;;;;6225108;23;20004;-75
2022/09/07 16:49:39;;;;;;;2.97;1.30;;;29.90;60.10;;;;;;6221671;23;20290;-74
2022/09/07 16:52:09;;;;;;;4.95;1.67;;;29.70;61.00;;;;;;6225081;23;20309;-75
2022/09/07 16:54:38;;;;;;;3.53;1.15;;;29.40;61.90;;;;;;6222292;23;20004;-74
2022/09/07 16:57:06;;;;;;;4.80;1.30;;;29.10;62.40;;;;;;6224594;23;20001;-75
2022/09/07 16:59:32;;;;;;;4.22;0.98;;;28.90;62.90;;;;;;6222841;23;20040;-75
2022/09/07 17:01:58;;;;;;;3.63;1.35;;;28.60;63.50;;;;;;6225268;23;20008;-75
2022/09/07 17:07:32;;;;;;;3.85;1.08;;;28.20;64.70;;;;;;6194198;23;20054;-75
2022/09/07 17:10:07;;;;;;;3.38;1.13;;;27.90;65.60;;;;;;6224898;23;20004;-75
2022/09/07 17:12:36;;;;;;;3.28;1.20;;;27.90;65.70;;;;;;6224247;23;20016;-75
2022/09/07 17:15:09;;;;;;;4.28;1.30;;;27.70;66.10;;;;;;6224672;23;20008;-75
2022/09/07 17:18:05;;;;;;;4.60;1.42;;;27.70;66.50;;;;;;6222572;23;20010;-75
2022/09/07 17:20:31;;;;;;;4.90;1.48;;;27.50;66.80;;;;;;6224345;23;20069;-75
2022/09/07 17:22:57;;;;;;;3.42;1.30;;;27.40;67.30;;;;;;6224858;23;20019;-75
2022/09/07 17:25:27;;;;;;;5.30;1.30;;;27.30;67.90;;;;;;6224405;23;20061;-76
2022/09/07 17:27:54;;;;;;;4.00;1.33;;;27.20;68.00;;;;;;6222974;23;20008;-75
2022/09/07 17:30:20;;;;;;;6.43;1.40;;;27.00;67.90;;;;;;6224631;23;20015;-75
2022/09/07 17:33:10;;;;;;;2.95;1.30;;;26.90;68.20;;;;;;6223325;23;20056;-75
2022/09/07 17:35:50;;;;;;;4.75;1.00;;;26.80;68.80;;;;;;6223817;23;20060;-76
2022/09/07 17:38:16;;;;;;;4.32;1.60;;;26.60;69.10;;;;;;6224492;23;20043;-75
2022/09/07 17:40:45;;;;;;;4.30;1.50;;;26.60;69.10;;;;;;6222463;23;20287;-75
2022/09/07 17:43:10;;;;;;;;;;;26.50;69.30;;;;;;6225076;23;20024;-76
2022/09/07 17:45:42;;;;;;;3.42;1.27;;;26.40;69.60;;;;;;6223938;23;19919;-77
2022/09/07 17:48:08;;;;;;;3.92;1.50;;;26.30;69.90;;;;;;6222906;23;20005;-79
2022/09/07 17:50:45;;;;;;;3.97;1.83;;;26.20;70.40;;;;;;6224002;23;20277;-77
2022/09/07 17:53:26;;;;;;;4.57;1.67;;;26.20;70.50;;;;;;6224445;23;20000;-78
2022/09/07 17:55:51;;;;;;;3.38;1.33;;;26.20;70.50;;;;;;6222942;23;20007;-76
2022/09/07 17:58:17;;;;;;;4.45;1.60;;;26.10;70.50;;;;;;6224157;23;20001;-76
2022/09/07 18:00:44;;;;;;;3.50;1.23;;;26.00;70.70;;;;;;6222530;23;20012;-76
2022/09/07 18:03:13;;;;;;;2.58;1.10;;;26.00;71.00;;;;;;6224138;23;20065;-74
2022/09/07 18:05:40;;;;;;;2.88;1.40;;;26.00;71.00;;;;;;6223652;23;20028;-75
2022/09/07 18:08:14;;;;;;;6.05;1.50;;;25.90;71.30;;;;;;6222706;23;20052;-76
2022/09/07 18:10:40;;;;;;;4.95;1.55;;;25.90;71.60;;;;;;6223678;23;20116;-76
2022/09/07 18:13:09;;;;;;;6.15;1.60;;;25.80;72.10;;;;;;6223937;23;20282;-74
2022/09/07 18:15:41;;;;;;;4.35;1.23;;;25.70;73.40;;;;;;6197562;23;19998;-76
2022/09/07 18:18:12;;;;;;;4.72;1.48;;;25.70;75.00;;;;;;6224208;23;20270;-75
2022/09/07 18:20:38;;;;;;;2.70;1.30;;;25.50;75.90;;;;;;6223541;23;20007;-75
2022/09/07 18:23:08;;;;;;;3.25;1.25;;;25.30;76.40;;;;;;6223849;23;20035;-75
2022/09/07 18:25:37;;;;;;;5.82;1.85;;;25.10;76.00;;;;;;6222107;23;20047;-76
2022/09/07 18:28:03;;;;;;;3.53;1.13;;;25.00;76.10;;;;;;6224046;23;19997;-75
2022/09/07 18:30:29;;;;;;;2.67;1.33;;;24.90;76.50;;;;;;6222696;23;20251;-76
2022/09/07 18:32:59;;;;;;;3.22;1.20;;;24.80;77.10;;;;;;6224171;23;19997;-75
2022/09/07 18:35:34;;;;;;;2.75;1.05;;;24.60;78.00;;;;;;6222752;23;20024;-79
2022/09/07 18:38:04;;;;;;;1.98;0.90;;;24.40;80.70;;;;;;6220847;23;19996;-77
2022/09/07 18:47:38;;;;;;;3.63;1.05;;;23.80;81.80;;;;;;6160461;23;20084;-77
2022/09/07 18:50:10;;;;;;;2.72;1.15;;;23.70;82.50;;;;;;6177487;23;20187;-78
2022/09/07 18:55:42;;;;;;;4.20;1.40;;;23.40;83.70;;;;;;6190481;23;20016;-79
2022/09/07 18:58:23;;;;;;;5.22;1.30;;;23.30;83.70;;;;;;6192796;23;20025;-79
2022/09/07 19:12:08;;;;;;;5.13;1.20;;;23.20;84.00;;;;;;6101332;23;20010;-77
2022/09/07 19:14:34;;;;;;;2.75;1.10;;;23.00;84.20;;;;;;6076262;23;20007;-78
2022/09/07 19:17:03;;;;;;;3.90;1.00;;;22.90;84.50;;;;;;6101260;23;20017;-76
2022/09/07 19:19:43;;;;;;;4.80;1.10;;;22.90;84.80;;;;;;6087110;23;20014;-77
2022/09/07 19:22:21;;;;;;;2.40;1.10;;;22.80;85.00;;;;;;6101126;23;20071;-77
2022/09/07 19:25:16;;;;;;;3.17;1.10;;;22.70;85.50;;;;;;6100769;23;20048;-76
2022/09/07 19:27:42;;;;;;;3.72;1.05;;;22.60;85.60;;;;;;6100001;23;20010;-76
2022/09/07 19:30:08;;;;;;;3.70;1.00;;;22.60;85.70;;;;;;6097620;23;20426;-77
2022/09/07 19:33:22;;;;;;;2.80;1.10;;;22.50;85.80;;;;;;6099294;23;20343;-77
2022/09/07 19:36:07;;;;;;;2.90;1.05;;;22.40;85.90;;;;;;6100393;23;20360;-77
2022/09/07 19:38:41;;;;;;;1.95;1.02;;;22.40;86.10;;;;;;6099489;23;20006;-77
2022/09/07 19:41:11;;;;;;;3.15;0.88;;;22.40;85.70;;;;;;6101831;23;20007;-76
2022/09/07 19:43:43;;;;;;;2.35;1.10;;;22.40;85.40;;;;;;6100107;23;20047;-75
2022/09/07 19:46:15;;;;;;;3.95;1.42;;;22.40;85.50;;;;;;6101831;23;20007;-75
2022/09/07 19:48:51;;;;;;;4.03;0.98;;;22.50;85.00;;;;;;6188977;23;20083;-75
2022/09/07 19:51:16;;;;;;;2.92;1.23;;;22.40;84.80;;;;;;6193144;23;20044;-77
2022/09/07 19:53:47;;;;;;;2.90;0.98;;;22.30;84.80;;;;;;6166476;23;20437;-76
2022/09/07 19:56:26;;;;;;;2.53;1.10;;;22.30;85.50;;;;;;6193725;23;20225;-75
2022/09/07 20:03:08;;;;;;;;;;;;;;;;;;;;;
2022/09/07 20:05:57;;;;;;;4.60;1.40;;;22.30;86.40;;;;;;6192976;23;20036;-77
2022/09/07 20:11:53;;;;;;;;;;;;;;;;;;;;;
2022/09/07 20:15:19;;;;;;;4.80;3.35;;;22.20;86.70;;;;;;6193087;23;20020;-75
2022/09/07 20:17:48;;;;;;;6.43;4.45;;;22.10;87.10;;;;;;6158220;23;20016;-77
2022/09/07 20:20:38;;;;;;;5.50;1.95;;;22.10;86.90;;;;;;6193583;23;20052;-75
2022/09/07 20:23:06;;;;;;;4.03;1.60;;;22.10;86.50;;;;;;6192043;23;20081;-76
2022/09/07 20:25:40;;;;;;;2.88;1.35;;;22.10;86.00;;;;;;6193781;23;20008;-76
2022/09/07 20:28:12;;;;;;;3.33;1.35;;;22.00;85.80;;;;;;6193514;23;20231;-77
2022/09/07 20:30:53;;;;;;;3.70;1.10;;;22.00;85.90;;;;;;6192239;23;20005;-76
2022/09/07 20:36:23;;;;;;;3.25;1.17;;;22.00;86.10;;;;;;6166493;23;20295;-77
2022/09/07 20:38:57;;;;;;;4.03;1.40;;;21.90;86.80;;;;;;6193121;23;19997;-76
2022/09/07 20:41:33;;;;;;;3.20;1.30;;;21.90;87.10;;;;;;6180477;23;20364;-76
2022/09/07 20:44:02;;;;;;;2.63;1.45;;;21.90;87.10;;;;;;6186266;23;20008;-77
2022/09/07 20:46:29;;;;;;;3.40;1.30;;;21.80;86.90;;;;;;6193924;23;19997;-76
2022/09/07 20:48:58;;;;;;;2.95;1.60;;;21.80;87.30;;;;;;6192771;23;20009;-77
2022/09/07 20:51:26;;;;;;;2.65;1.35;;;21.80;87.80;;;;;;6193034;23;20019;-76
2022/09/07 20:53:52;;;;;;;3.00;1.38;;;21.70;87.70;;;;;;6192319;23;20008;-75
2022/09/07 20:56:24;;;;;;;3.03;1.23;;;21.70;87.60;;;;;;6193163;23;20045;-76
2022/09/07 20:59:16;;;;;;;2.97;1.35;;;21.60;87.90;;;;;;6193071;23;20219;-76
2022/09/07 21:01:52;;;;;;;2.40;1.20;;;21.60;87.60;;;;;;6192959;23;20008;-78
2022/09/07 21:04:25;;;;;;;3.03;1.20;;;21.60;88.00;;;;;;6193364;23;20001;-75
2022/09/07 21:06:54;;;;;;;3.97;1.58;;;21.60;88.00;;;;;;6192500;23;20001;-78
2022/09/07 21:09:25;;;;;;;3.30;1.63;;;21.60;88.40;;;;;;6193075;23;20294;-77
2022/09/07 21:11:51;;;;;;;3.78;1.30;;;21.50;88.10;;;;;;6166449;23;20168;-77
2022/09/07 21:14:20;;;;;;;5.55;3.78;;;21.50;88.60;;;;;;6167623;23;19993;-78
2022/09/07 21:16:46;;;;;;;5.28;2.30;;;21.50;89.20;;;;;;6192529;23;20020;-76
2022/09/07 21:22:41;;;;;;;3.03;1.35;;;21.40;89.70;;;;;;6166252;23;20064;-78
2022/09/07 21:25:10;;;;;;;3.70;1.67;;;21.30;89.80;;;;;;6193291;23;20056;-78
2022/09/07 21:27:36;;;;;;;;;;;21.30;89.00;;;;;;6194168;23;20004;-78
2022/09/07 21:30:11;;;;;;;4.00;1.60;;;21.30;89.50;;;;;;6131019;23;20191;-79
2022/09/07 21:32:53;;;;;;;3.65;1.30;;;21.30;89.40;;;;;;6191128;23;20022;-77
2022/09/07 21:35:19;;;;;;;4.25;1.50;;;21.30;89.80;;;;;;6193065;23;20172;-76
2022/09/07 21:37:51;;;;;;;4.40;1.60;;;21.30;89.90;;;;;;6167062;23;19997;-76
2022/09/07 21:40:23;;;;;;;2.55;1.33;;;21.30;88.80;;;;;;6166103;23;20013;-78
2022/09/07 21:42:50;;;;;;;2.40;1.38;;;21.40;88.80;;;;;;6192196;23;20012;-77
2022/09/07 21:45:25;;;;;;;3.08;1.30;;;21.40;87.80;;;;;;6167370;23;20063;-77
2022/09/07 21:47:57;;;;;;;3.10;1.50;;;21.50;88.30;;;;;;6192496;23;20001;-78
2022/09/07 21:50:23;;;;;;;5.22;3.50;;;21.50;87.80;;;;;;6167182;23;20005;-77
2022/09/07 21:52:51;;;;;;;5.95;3.63;;;21.60;87.80;;;;;;6190763;23;20020;-76
2022/09/07 21:55:19;;;;;;;;;;;21.60;88.80;;;;;;6193491;23;20004;-76
2022/09/07 21:57:45;;;;;;;;;;;21.50;89.20;;;;;;6193498;23;19900;-77
2022/09/07 22:00:17;;;;;;;4.97;1.92;;;21.50;89.70;;;;;;6192837;23;19900;-78
2022/09/07 22:02:43;;;;;;;2.97;1.55;;;21.50;90.10;;;;;;6191902;23;20004;-75
2022/09/07 22:05:09;;;;;;;3.20;1.40;;;21.40;90.40;;;;;;6192895;23;20008;-78
2022/09/07 22:07:38;;;;;;;3.85;1.52;;;21.40;90.80;;;;;;6192977;23;20016;-77
2022/09/07 22:10:08;;;;;;;3.33;1.40;;;21.30;91.00;;;;;;6191649;23;20060;-78
2022/09/07 22:12:37;;;;;;;3.65;1.40;;;21.30;91.10;;;;;;6191371;23;20001;-76
2022/09/07 22:15:45;;;;;;;2.58;1.40;;;21.30;91.80;;;;;;6190688;23;20001;-76
2022/09/07 22:18:14;;;;;;;6.20;1.95;;;21.30;91.90;;;;;;6143881;23;20006;-77
2022/09/07 22:20:42;;;;;;;5.13;1.80;;;21.30;92.10;;;;;;6192358;23;20016;-77
2022/09/07 22:23:24;;;;;;;3.83;1.98;;;21.30;92.40;;;;;;6192576;23;20005;-76
2022/09/07 22:25:54;;;;;;;4.32;2.00;;;21.20;93.30;;;;;;6191151;23;20059;-76
2022/09/07 22:28:20;;;;;;;5.28;1.90;;;21.10;94.40;;;;;;6193700;23;20051;-77
2022/09/07 22:31:24;;;;;;;4.28;1.88;;;21.10;95.40;;;;;;6164420;23;20013;-78
2022/09/07 22:34:04;;;;;;;4.22;2.20;;;21.00;96.40;;;;;;6162777;23;20032;-76
2022/09/07 22:36:49;;;;;;;6.15;1.95;;;20.90;96.90;;;;;;6113897;23;20029;-75
2022/09/07 22:39:18;;;;;;;6.55;2.38;;;20.90;97.80;;;;;;6164279;23;20036;-76
2022/09/07 22:42:21;;;;;;;7.35;2.58;;;20.90;98.70;;;;;;6163887;23;20068;-76
2022/09/07 22:44:57;;;;;;;4.80;2.50;;;20.80;99.00;;;;;;6137665;23;20310;-77
2022/09/07 22:47:26;;;;;;;4.97;2.63;;;20.80;99.20;;;;;;6165758;23;20064;-78
2022/09/07 22:50:01;;;;;;;4.13;2.30;;;20.80;99.50;;;;;;6164559;23;20001;-76
2022/09/07 22:53:21;;;;;;;5.68;2.10;;;20.80;99.90;;;;;;6164920;23;20013;-76
2022/09/07 22:55:51;;;;;;;3.75;1.98;;;20.80;99.90;;;;;;6163588;23;20195;-77
2022/09/07 22:58:54;;;;;;;11.68;5.65;;;20.70;99.90;;;;;;6163102;23;20013;-77
